Time;durP1;ratioP1;P1;durP2;ratioP2;P2;SDS_P1;SDS_P2;PMS_P1;PMS_P2;Temp;Humidity;BMP_temperature;BMP_pressure;BME280_temperature;BME280_humidity;BME280_pressure;Samples;Min_cycle;Max_cycle;Signal;HPM_P1;HPM_P2
2022/04/30 00:02:14;;;;;;;10.30;6.17;;;5.50;99.90;;;;;;5103604;28;20201;-50
2022/04/30 00:04:42;;;;;;;11.37;6.43;;;5.50;99.90;;;;;;5099996;28;20185;-51
2022/04/30 00:07:08;;;;;;;15.90;6.77;;;5.40;99.90;;;;;;5106238;28;20250;-50
2022/04/30 00:09:35;;;;;;;12.80;6.53;;;5.50;99.90;;;;;;5100004;28;20422;-51
2022/04/30 00:12:01;;;;;;;13.60;6.67;;;5.40;99.90;;;;;;5096271;28;20455;-51
2022/04/30 00:14:27;;;;;;;12.83;6.03;;;5.40;99.90;;;;;;5100996;28;20456;-51
2022/04/30 00:16:53;;;;;;;9.87;6.17;;;5.40;99.90;;;;;;5102669;28;20798;-51
2022/04/30 00:19:20;;;;;;;16.90;7.30;;;5.30;99.90;;;;;;5100252;28;20236;-51
2022/04/30 00:21:46;;;;;;;10.73;7.10;;;5.30;1.00;;;;;;5099169;28;20196;-51
2022/04/30 00:24:12;;;;;;;15.37;8.03;;;5.30;1.00;;;;;;5101109;28;20442;-51
2022/04/30 00:26:37;;;;;;;16.50;7.67;;;5.30;1.00;;;;;;5101968;28;20189;-51
2022/04/30 00:29:03;;;;;;;10.73;7.00;;;5.30;1.00;;;;;;5096975;28;20178;-51
2022/04/30 00:31:29;;;;;;;13.13;7.93;;;5.40;1.00;;;;;;5087610;28;20196;-51
2022/04/30 00:33:56;;;;;;;11.00;7.33;;;5.30;1.00;;;;;;5100040;28;20500;-51
2022/04/30 00:36:22;;;;;;;20.97;8.20;;;5.40;1.00;;;;;;5102477;28;20201;-51
2022/04/30 00:38:48;;;;;;;12.60;8.07;;;5.40;1.00;;;;;;5097230;28;20423;-51
2022/04/30 00:41:14;;;;;;;12.40;7.60;;;5.40;1.00;;;;;;5099791;28;20459;-51
2022/04/30 00:43:48;;;;;;;15.23;8.10;;;5.40;1.00;;;;;;5096106;28;20682;-51
2022/04/30 00:46:15;;;;;;;19.47;8.17;;;5.40;1.00;;;;;;5106704;28;20506;-51
2022/04/30 00:48:42;;;;;;;11.43;7.70;;;5.40;1.00;;;;;;5095904;28;20415;-51
2022/04/30 00:51:16;;;;;;;14.77;7.97;;;5.40;1.00;;;;;;5105330;28;20434;-51
2022/04/30 00:53:52;;;;;;;21.47;9.37;;;5.40;1.00;;;;;;5102887;28;20430;-51
2022/04/30 00:56:32;;;;;;;18.90;8.70;;;5.30;1.00;;;;;;5099254;28;20419;-51
2022/04/30 00:59:04;;;;;;;20.47;9.07;;;5.30;1.00;;;;;;5102010;28;20431;-51
2022/04/30 01:01:33;;;;;;;22.63;11.10;;;5.30;25.80;;;;;;5100187;28;20458;-51
2022/04/30 01:04:00;;;;;;;17.87;10.30;;;5.20;99.90;;;;;;5095943;28;20443;-51
2022/04/30 01:06:48;;;;;;;24.23;10.10;;;5.20;99.90;;;;;;5100336;28;20483;-51
2022/04/30 01:09:14;;;;;;;24.10;11.03;;;5.20;99.90;;;;;;5105905;28;20893;-51
2022/04/30 01:11:41;;;;;;;24.37;11.47;;;5.20;99.90;;;;;;5106105;28;20865;-52
2022/04/30 01:14:07;;;;;;;24.67;10.70;;;5.20;99.90;;;;;;5105528;28;20427;-51
2022/04/30 01:16:35;;;;;;;18.77;11.23;;;5.20;1.00;;;;;;5104262;28;20425;-55
2022/04/30 01:19:02;;;;;;;21.10;10.87;;;5.20;99.90;;;;;;5101121;28;20530;-51
2022/04/30 01:21:30;;;;;;;26.10;13.00;;;5.30;99.90;;;;;;5100225;28;20466;-51
2022/04/30 01:23:58;;;;;;;19.40;10.30;;;5.20;1.00;;;;;;5082886;28;20441;-52
2022/04/30 01:26:26;;;;;;;26.70;11.67;;;5.30;1.00;;;;;;5107277;28;20417;-51
2022/04/30 01:28:53;;;;;;;17.37;11.80;;;5.30;1.00;;;;;;5108558;28;20447;-51
2022/04/30 01:39:31;;;;;;;21.90;12.00;;;5.30;99.90;;;;;;5104112;28;20467;-51
2022/04/30 01:42:04;;;;;;;20.13;12.50;;;5.30;1.00;;;;;;5106561;27;20438;-51
2022/04/30 01:44:30;;;;;;;16.83;11.23;;;5.20;1.00;;;;;;5104342;28;20200;-51
2022/04/30 01:46:56;;;;;;;18.73;10.73;;;5.20;1.00;;;;;;5103110;28;20503;-51
2022/04/30 01:49:22;;;;;;;22.03;11.90;;;5.20;99.90;;;;;;5103790;28;20188;-51
2022/04/30 01:51:49;;;;;;;22.20;11.17;;;5.20;99.90;;;;;;5094916;28;20407;-52
2022/04/30 01:54:15;;;;;;;19.43;11.73;;;5.20;99.90;;;;;;5104627;28;20186;-52
2022/04/30 01:56:40;;;;;;;23.27;11.50;;;5.20;99.90;;;;;;5096565;27;20852;-51
2022/04/30 01:59:06;;;;;;;22.07;10.77;;;5.20;1.00;;;;;;5100473;28;20256;-55
2022/04/30 02:01:32;;;;;;;26.23;11.27;;;5.20;1.00;;;;;;5102227;28;20231;-55
2022/04/30 02:03:58;;;;;;;18.60;10.77;;;5.10;1.00;;;;;;5103059;27;20681;-56
2022/04/30 02:06:24;;;;;;;20.97;10.57;;;5.10;1.00;;;;;;5101833;27;20437;-56
2022/04/30 02:08:50;;;;;;;19.20;11.70;;;5.00;62.30;;;;;;5105329;27;20795;-56
2022/04/30 02:11:16;;;;;;;20.70;11.63;;;5.10;1.00;;;;;;5106460;28;20441;-52
2022/04/30 02:13:51;;;;;;;18.70;11.90;;;5.00;99.90;;;;;;5104842;27;20446;-51
2022/04/30 02:16:18;;;;;;;24.40;11.53;;;5.00;99.90;;;;;;5100720;28;20207;-51
2022/04/30 02:18:44;;;;;;;20.10;10.33;;;5.10;1.00;;;;;;5102422;28;20558;-52
2022/04/30 02:21:10;;;;;;;21.70;10.80;;;5.00;6.30;;;;;;5085576;27;20860;-51
2022/04/30 02:23:36;;;;;;;23.70;11.30;;;4.90;99.90;;;;;;5099591;28;20237;-51
2022/04/30 02:26:04;;;;;;;24.23;10.90;;;4.90;99.90;;;;;;5100297;27;20546;-51
2022/04/30 02:28:30;;;;;;;22.53;11.10;;;4.90;1.00;;;;;;5088366;28;20446;-52
2022/04/30 02:30:56;;;;;;;21.43;12.10;;;4.90;1.00;;;;;;5097892;27;20439;-52
2022/04/30 02:33:22;;;;;;;23.00;11.87;;;4.90;99.90;;;;;;5099403;27;20231;-52
2022/04/30 02:35:48;;;;;;;24.53;11.27;;;4.90;1.00;;;;;;5103878;27;20472;-52
2022/04/30 02:38:13;;;;;;;21.00;10.93;;;4.90;1.00;;;;;;5087204;27;20219;-52
2022/04/30 02:40:41;;;;;;;23.07;12.07;;;4.90;99.90;;;;;;5090863;28;20250;-51
2022/04/30 02:43:12;;;;;;;15.73;10.90;;;4.90;73.30;;;;;;5102458;28;20366;-52
2022/04/30 02:45:39;;;;;;;21.83;11.53;;;4.80;1.00;;;;;;5102860;28;20461;-52
2022/04/30 02:48:06;;;;;;;26.83;12.20;;;4.80;16.50;;;;;;5106736;27;20796;-52
2022/04/30 02:50:33;;;;;;;22.90;13.23;;;4.80;85.90;;;;;;5103057;27;20438;-52
2022/04/30 02:52:59;;;;;;;21.63;12.00;;;4.80;1.00;;;;;;5103203;28;20430;-52
2022/04/30 02:55:25;;;;;;;28.33;12.07;;;4.90;1.00;;;;;;5105520;28;20449;-52
2022/04/30 03:00:42;;;;;;;21.90;11.53;;;4.90;1.00;;;;;;5100938;28;20932;-52
2022/04/30 03:03:09;;;;;;;17.57;11.17;;;4.90;1.00;;;;;;5100957;28;20440;-52
2022/04/30 03:05:42;;;;;;;22.60;11.67;;;4.80;1.00;;;;;;5098450;28;20483;-52
2022/04/30 03:08:13;;;;;;;19.43;11.80;;;4.80;1.00;;;;;;5096474;28;20415;-52
2022/04/30 03:10:44;;;;;;;18.70;11.90;;;4.80;1.00;;;;;;5103966;28;20921;-52
2022/04/30 03:13:10;;;;;;;18.20;11.80;;;4.80;1.00;;;;;;5100384;28;20418;-52
2022/04/30 03:15:38;;;;;;;21.73;11.60;;;4.80;85.70;;;;;;5098700;28;20920;-52
2022/04/30 03:23:35;;;;;;;28.83;11.97;;;4.70;99.90;;;;;;5101363;28;20422;-52
2022/04/30 03:26:01;;;;;;;23.07;11.03;;;4.70;99.90;;;;;;5109075;28;20540;-52
2022/04/30 03:28:26;;;;;;;17.07;10.03;;;4.70;99.90;;;;;;5104702;28;20518;-52
2022/04/30 03:30:52;;;;;;;20.50;10.50;;;4.60;99.90;;;;;;5098675;28;20196;-52
2022/04/30 03:33:18;;;;;;;19.57;10.07;;;4.60;99.90;;;;;;5098017;28;20303;-52
2022/04/30 03:35:44;;;;;;;24.27;10.93;;;4.60;99.90;;;;;;5107280;28;20219;-52
2022/04/30 03:38:10;;;;;;;15.60;10.00;;;4.60;82.30;;;;;;5103921;28;20458;-52
2022/04/30 03:40:39;;;;;;;16.87;10.47;;;4.60;14.40;;;;;;5104619;28;20501;-53
2022/04/30 03:43:05;;;;;;;17.73;11.33;;;4.50;1.00;;;;;;5099713;28;20795;-52
2022/04/30 03:45:30;;;;;;;28.57;11.67;;;4.50;1.00;;;;;;5106307;28;20426;-52
2022/04/30 03:47:56;;;;;;;25.63;11.20;;;4.50;76.10;;;;;;5095958;28;20410;-53
2022/04/30 03:50:21;;;;;;;17.97;11.90;;;4.50;99.90;;;;;;5101190;28;20196;-52
2022/04/30 03:52:47;;;;;;;19.40;11.47;;;4.40;99.90;;;;;;5107642;28;20324;-52
2022/04/30 03:55:14;;;;;;;20.67;11.83;;;4.40;99.90;;;;;;5102340;28;20196;-52
2022/04/30 03:57:40;;;;;;;21.43;11.33;;;4.40;99.90;;;;;;5097178;28;20196;-52
2022/04/30 04:00:07;;;;;;;25.40;11.50;;;4.40;99.90;;;;;;5103127;27;20461;-52
2022/04/30 04:02:33;;;;;;;24.00;12.20;;;4.40;99.90;;;;;;5103849;28;20194;-52
2022/04/30 04:04:59;;;;;;;18.47;10.93;;;4.40;99.90;;;;;;5103696;28;20426;-52
2022/04/30 04:07:26;;;;;;;21.90;11.57;;;4.40;99.90;;;;;;5101067;28;20204;-53
2022/04/30 04:09:51;;;;;;;18.17;11.70;;;4.50;99.90;;;;;;5096001;28;20189;-52
2022/04/30 04:12:17;;;;;;;24.90;11.27;;;4.50;99.90;;;;;;5085548;28;20940;-52
2022/04/30 04:17:38;;;;;;;23.67;11.20;;;4.50;99.90;;;;;;5101235;28;20239;-52
2022/04/30 04:20:06;;;;;;;25.10;12.30;;;4.50;99.90;;;;;;5102455;28;21242;-52
2022/04/30 04:22:32;;;;;;;33.33;10.60;;;4.50;99.90;;;;;;5095040;28;20473;-52
2022/04/30 04:27:42;;;;;;;20.13;10.10;;;4.60;99.90;;;;;;5096758;28;20175;-52
2022/04/30 04:30:08;;;;;;;16.60;10.80;;;4.70;99.90;;;;;;5097807;28;20509;-52
2022/04/30 04:32:33;;;;;;;21.70;10.53;;;4.80;99.90;;;;;;5099283;28;20193;-53
2022/04/30 04:34:59;;;;;;;30.73;9.33;;;4.80;99.90;;;;;;5102551;28;20902;-52
2022/04/30 04:37:24;;;;;;;16.60;10.23;;;4.80;99.90;;;;;;5104234;28;20208;-52
2022/04/30 04:39:50;;;;;;;19.77;9.90;;;4.90;99.90;;;;;;5094302;28;20297;-52
2022/04/30 04:42:16;;;;;;;16.93;8.87;;;4.90;99.90;;;;;;5103050;28;20181;-52
2022/04/30 04:44:41;;;;;;;17.37;9.60;;;4.90;99.90;;;;;;5103362;28;20196;-52
2022/04/30 04:47:07;;;;;;;17.50;9.40;;;5.00;99.90;;;;;;5097609;28;20269;-52
2022/04/30 04:49:33;;;;;;;18.00;9.10;;;5.00;99.90;;;;;;5101018;28;20223;-52
2022/04/30 04:52:01;;;;;;;21.60;8.67;;;5.00;99.90;;;;;;5099976;28;20242;-52
2022/04/30 04:54:27;;;;;;;14.57;9.80;;;5.10;99.90;;;;;;5104377;28;20193;-52
2022/04/30 04:56:53;;;;;;;16.77;9.00;;;5.10;99.90;;;;;;5106798;28;20895;-52
2022/04/30 04:59:19;;;;;;;19.50;9.23;;;5.10;99.90;;;;;;5109122;28;20410;-52
2022/04/30 05:01:48;;;;;;;12.10;8.03;;;5.20;99.90;;;;;;5100734;28;20527;-52
2022/04/30 05:04:13;;;;;;;16.90;7.90;;;5.20;99.90;;;;;;5106463;28;20596;-52
2022/04/30 05:06:39;;;;;;;11.17;7.70;;;5.20;99.90;;;;;;5104337;28;20473;-52
2022/04/30 05:09:05;;;;;;;13.33;8.17;;;5.20;99.90;;;;;;5106251;28;20201;-52
2022/04/30 05:11:30;;;;;;;17.27;8.80;;;5.20;99.90;;;;;;5105350;28;20191;-52
2022/04/30 05:13:56;;;;;;;16.40;8.20;;;5.20;99.90;;;;;;5105588;28;20199;-52
2022/04/30 05:16:21;;;;;;;18.20;8.70;;;5.20;99.90;;;;;;5103202;28;20735;-52
2022/04/30 05:18:47;;;;;;;14.97;7.67;;;5.30;99.90;;;;;;5100462;28;20312;-53
2022/04/30 05:21:12;;;;;;;12.77;8.20;;;5.30;99.90;;;;;;5105703;28;20278;-51
2022/04/30 05:23:38;;;;;;;13.50;8.17;;;5.40;99.90;;;;;;5098700;28;20207;-52
2022/04/30 05:26:03;;;;;;;10.93;7.60;;;5.50;99.90;;;;;;5109937;28;20200;-52
2022/04/30 05:28:29;;;;;;;11.67;7.07;;;5.50;87.00;;;;;;5110576;28;20199;-52
2022/04/30 05:30:54;;;;;;;10.83;7.47;;;5.60;1.00;;;;;;5103996;28;20539;-51
2022/04/30 05:33:20;;;;;;;11.07;7.33;;;5.70;1.00;;;;;;5105927;28;20184;-51
2022/04/30 05:35:45;;;;;;;10.70;6.90;;;5.80;1.00;;;;;;5100251;28;20265;-51
2022/04/30 05:38:11;;;;;;;13.27;6.37;;;5.90;99.90;;;;;;5098347;28;20599;-51
2022/04/30 05:40:37;;;;;;;12.23;6.90;;;6.10;45.70;;;;;;5101110;28;20555;-51
2022/04/30 05:43:04;;;;;;;10.20;6.60;;;6.20;11.60;;;;;;5101431;28;20193;-51
2022/04/30 05:45:30;;;;;;;13.07;6.77;;;6.40;1.00;;;;;;5099196;28;20199;-51
2022/04/30 05:47:55;;;;;;;9.77;5.90;;;6.60;1.00;;;;;;5101312;28;21093;-51
2022/04/30 05:50:21;;;;;;;14.57;6.97;;;6.80;99.90;;;;;;5105605;28;20188;-50
2022/04/30 05:52:46;;;;;;;12.00;5.67;;;7.10;1.00;;;;;;5096417;28;20680;-51
2022/04/30 05:55:12;;;;;;;8.43;6.10;;;7.30;99.90;;;;;;5104967;28;20191;-50
2022/04/30 05:57:39;;;;;;;9.00;6.73;;;7.40;99.90;;;;;;5103262;28;20260;-51
2022/04/30 06:00:05;;;;;;;7.33;5.47;;;7.60;99.90;;;;;;5099110;28;20660;-50
2022/04/30 06:02:31;;;;;;;11.73;5.37;;;7.70;1.00;;;;;;5101765;28;20453;-50
2022/04/30 06:04:56;;;;;;;9.20;5.57;;;7.90;1.00;;;;;;5103364;28;20438;-50
2022/04/30 06:07:22;;;;;;;7.27;5.40;;;8.10;1.00;;;;;;5097674;28;20710;-50
2022/04/30 06:09:47;;;;;;;11.03;5.67;;;8.30;1.00;;;;;;5101560;28;20192;-50
2022/04/30 06:12:13;;;;;;;8.07;5.07;;;8.40;1.00;;;;;;5106561;28;20199;-51
2022/04/30 06:14:38;;;;;;;11.57;5.47;;;8.60;1.00;;;;;;5101170;28;20594;-50
2022/04/30 06:17:04;;;;;;;9.30;4.60;;;8.70;1.00;;;;;;5105153;28;20283;-50
2022/04/30 06:19:30;;;;;;;8.77;4.83;;;8.90;1.00;;;;;;5102385;28;20219;-50
2022/04/30 06:21:55;;;;;;;9.80;4.80;;;9.00;1.00;;;;;;5105803;28;20220;-50
2022/04/30 06:24:21;;;;;;;9.80;3.93;;;9.10;1.00;;;;;;5095707;28;20185;-50
2022/04/30 06:26:46;;;;;;;12.73;5.33;;;9.20;1.00;;;;;;5099062;28;20295;-50
2022/04/30 06:29:12;;;;;;;6.90;4.87;;;9.40;1.00;;;;;;5104466;28;20933;-50
2022/04/30 06:31:39;;;;;;;13.27;4.40;;;9.70;1.00;;;;;;5109089;28;20245;-50
2022/04/30 06:34:05;;;;;;;8.80;4.87;;;9.80;1.00;;;;;;5101934;28;20431;-50
2022/04/30 06:36:30;;;;;;;6.70;3.70;;;9.70;1.00;;;;;;5102796;28;20453;-50
2022/04/30 06:38:56;;;;;;;14.90;5.37;;;9.60;1.00;;;;;;5104917;28;20932;-50
2022/04/30 06:41:21;;;;;;;7.80;4.40;;;9.90;1.00;;;;;;5108146;27;20224;-50
2022/04/30 06:43:49;;;;;;;5.50;4.37;;;10.20;1.00;;;;;;5095226;28;20194;-50
2022/04/30 06:46:16;;;;;;;5.73;4.07;;;10.60;1.00;;;;;;5101672;27;20196;-50
2022/04/30 06:48:41;;;;;;;6.83;4.20;;;10.70;99.90;;;;;;5099547;27;20415;-50
2022/04/30 06:51:07;;;;;;;8.43;4.00;;;10.80;99.90;;;;;;5100397;28;20443;-50
2022/04/30 06:59:10;;;;;;;8.53;4.10;;;11.60;99.90;;;;;;5101037;27;20480;-50
2022/04/30 07:02:21;;;;;;;5.20;3.70;;;11.90;99.90;;;;;;5103555;28;20484;-50
2022/04/30 07:04:25;;;;;;;5.73;3.77;;;12.20;99.90;;;;;;5095293;28;20551;-50
2022/04/30 07:06:52;;;;;;;11.13;4.20;;;12.30;99.90;;;;;;5097005;28;20431;-50
2022/04/30 07:09:17;;;;;;;5.23;4.07;;;12.60;99.90;;;;;;5103982;28;20434;-50
2022/04/30 07:11:44;;;;;;;4.73;3.30;;;12.70;99.90;;;;;;5097438;28;20442;-50
2022/04/30 07:14:10;;;;;;;4.93;3.63;;;12.90;99.90;;;;;;5102368;28;20205;-50
2022/04/30 07:16:36;;;;;;;5.30;3.37;;;12.90;99.90;;;;;;5105657;28;20453;-50
2022/04/30 07:19:03;;;;;;;7.60;3.97;;;13.00;99.90;;;;;;5104828;27;20649;-50
2022/04/30 07:21:30;;;;;;;7.43;3.20;;;13.00;99.90;;;;;;5095579;28;20224;-50
2022/04/30 07:23:55;;;;;;;4.33;3.00;;;13.00;99.90;;;;;;5105718;28;20928;-50
2022/04/30 07:26:21;;;;;;;5.63;3.53;;;13.10;99.90;;;;;;5097567;28;20430;-49
2022/04/30 07:28:46;;;;;;;5.30;3.50;;;13.20;99.90;;;;;;5101808;28;20196;-50
2022/04/30 07:31:12;;;;;;;6.50;3.30;;;13.20;99.90;;;;;;5088998;28;20550;-50
2022/04/30 07:33:38;;;;;;;12.27;3.00;;;13.10;99.90;;;;;;5104374;28;20207;-50
2022/04/30 07:36:04;;;;;;;7.03;3.40;;;13.00;99.90;;;;;;5097561;28;20495;-50
2022/04/30 07:38:31;;;;;;;9.10;3.40;;;13.10;99.90;;;;;;5105123;28;20477;-50
2022/04/30 07:40:56;;;;;;;4.80;3.17;;;13.10;99.90;;;;;;5100142;28;20527;-49
2022/04/30 07:43:22;;;;;;;4.80;3.37;;;13.20;99.90;;;;;;5102460;28;20451;-50
2022/04/30 07:45:48;;;;;;;6.40;2.77;;;13.30;99.90;;;;;;5103592;28;20188;-49
2022/04/30 07:48:13;;;;;;;5.00;3.20;;;13.10;99.90;;;;;;5102957;27;20200;-50
2022/04/30 07:50:41;;;;;;;4.47;2.93;;;13.10;99.90;;;;;;5086067;28;20274;-50
2022/04/30 07:53:08;;;;;;;3.63;2.80;;;13.30;99.90;;;;;;5100008;28;20203;-50
2022/04/30 07:55:34;;;;;;;3.90;3.30;;;13.40;99.90;;;;;;5102236;28;20462;-50
2022/04/30 07:58:02;;;;;;;7.23;2.93;;;13.50;99.90;;;;;;5089536;28;20472;-50
2022/04/30 08:00:28;;;;;;;3.00;2.50;;;13.60;99.90;;;;;;5097120;28;20529;-50
2022/04/30 08:02:58;;;;;;;6.50;3.43;;;13.50;99.90;;;;;;5100542;28;20443;-50
2022/04/30 08:05:27;;;;;;;6.20;3.40;;;13.50;99.90;;;;;;5106426;28;20973;-50
2022/04/30 08:07:56;;;;;;;3.40;3.03;;;13.70;99.90;;;;;;5100239;28;20439;-50
2022/04/30 08:10:22;;;;;;;4.33;3.20;;;13.90;99.90;;;;;;5103534;28;20904;-50
2022/04/30 08:12:53;;;;;;;5.50;2.40;;;14.10;99.90;;;;;;5095902;28;20433;-50
2022/04/30 08:15:20;;;;;;;4.70;2.53;;;14.30;99.90;;;;;;5096424;28;20196;-50
2022/04/30 08:17:45;;;;;;;4.13;2.80;;;14.50;99.90;;;;;;5109567;28;20446;-52
2022/04/30 08:20:11;;;;;;;4.20;2.50;;;14.80;99.90;;;;;;5098919;28;20477;-52
2022/04/30 08:22:36;;;;;;;5.30;3.53;;;15.00;99.90;;;;;;5105016;28;20705;-52
2022/04/30 08:25:03;;;;;;;7.90;2.93;;;14.90;99.90;;;;;;5104765;28;20187;-51
2022/04/30 08:27:29;;;;;;;5.30;2.80;;;15.40;99.90;;;;;;5098175;28;20193;-52
2022/04/30 08:29:54;;;;;;;3.73;2.57;;;15.80;99.90;;;;;;5098676;28;21067;-52
2022/04/30 08:32:26;;;;;;;5.07;2.90;;;15.80;99.90;;;;;;5104972;28;20207;-53
2022/04/30 08:34:52;;;;;;;3.73;2.50;;;16.00;99.90;;;;;;5084492;28;20257;-52
2022/04/30 08:37:18;;;;;;;3.90;2.67;;;16.20;99.90;;;;;;5104746;28;20422;-52
2022/04/30 08:39:45;;;;;;;7.67;2.90;;;16.70;99.90;;;;;;5102275;28;20959;-52
2022/04/30 08:42:12;;;;;;;4.00;2.07;;;16.50;99.90;;;;;;5099755;28;20427;-52
2022/04/30 08:44:39;;;;;;;4.03;1.90;;;16.70;99.90;;;;;;5102334;28;20443;-52
2022/04/30 08:47:05;;;;;;;2.70;2.30;;;16.90;99.90;;;;;;5107645;28;20430;-52
2022/04/30 08:49:31;;;;;;;2.30;2.10;;;16.70;99.90;;;;;;5101307;28;20525;-52
2022/04/30 08:51:57;;;;;;;4.27;2.10;;;16.60;99.90;;;;;;5098188;28;20510;-52
2022/04/30 08:54:24;;;;;;;2.80;2.33;;;16.50;99.90;;;;;;5104702;28;20419;-51
2022/04/30 08:56:54;;;;;;;3.70;2.20;;;16.30;99.90;;;;;;5103692;28;20197;-52
2022/04/30 08:59:20;;;;;;;5.23;3.27;;;16.40;99.90;;;;;;5108133;28;20449;-51
2022/04/30 09:01:47;;;;;;;4.40;2.13;;;16.60;99.90;;;;;;5099083;28;20494;-52
2022/04/30 09:04:13;;;;;;;3.43;2.57;;;16.60;99.90;;;;;;5106635;28;20207;-58
2022/04/30 09:06:50;;;;;;;3.20;2.80;;;16.50;99.90;;;;;;5104684;28;20954;-52
2022/04/30 09:09:28;;;;;;;5.13;2.40;;;16.60;99.90;;;;;;5099647;28;20421;-52
2022/04/30 09:11:57;;;;;;;2.73;2.10;;;17.00;99.90;;;;;;5098066;28;20433;-52
2022/04/30 09:14:26;;;;;;;5.83;1.90;;;17.10;99.90;;;;;;5103767;28;20511;-53
2022/04/30 09:17:06;;;;;;;4.00;2.00;;;17.40;99.90;;;;;;5105484;28;20448;-52
2022/04/30 09:19:45;;;;;;;2.57;2.17;;;17.90;99.90;;;;;;5051632;28;1034491;-52
2022/04/30 09:22:10;;;;;;;6.47;2.40;;;18.20;99.90;;;;;;5100442;28;20200;-52
2022/04/30 09:24:46;;;;;;;3.80;2.07;;;18.40;99.90;;;;;;5103014;28;21241;-51
2022/04/30 09:27:17;;;;;;;2.60;2.40;;;18.50;99.90;;;;;;5096934;28;20199;-51
2022/04/30 09:29:43;;;;;;;5.43;2.40;;;18.60;99.90;;;;;;5103416;27;20407;-51
2022/04/30 09:32:16;;;;;;;2.20;2.00;;;18.70;99.90;;;;;;5107500;28;20442;-51
2022/04/30 09:37:43;;;;;;;4.97;2.90;;;18.60;99.90;;;;;;5104984;28;20464;-52
2022/04/30 09:40:15;;;;;;;3.43;2.40;;;18.30;99.90;;;;;;5097576;28;20527;-51
2022/04/30 09:42:46;;;;;;;4.80;2.97;;;18.40;99.90;;;;;;5103498;28;20500;-52
2022/04/30 09:45:41;;;;;;;7.93;2.50;;;18.30;99.90;;;;;;5108146;27;20438;-52
2022/04/30 09:53:57;;;;;;;4.80;2.77;;;18.30;99.90;;;;;;5102021;28;20437;-52
2022/04/30 09:56:44;;;;;;;5.33;2.70;;;17.80;99.90;;;;;;5099363;27;21293;-50
2022/04/30 09:59:12;;;;;;;4.73;2.40;;;17.50;99.90;;;;;;5106047;28;20965;-50
2022/04/30 10:01:39;;;;;;;4.20;3.10;;;17.60;99.90;;;;;;5097727;28;20470;-50
2022/04/30 10:04:24;;;;;;;4.67;3.10;;;17.70;99.90;;;;;;5104226;28;20430;-50
2022/04/30 10:06:51;;;;;;;3.30;2.83;;;17.70;99.90;;;;;;5098357;28;20435;-50
2022/04/30 10:09:21;;;;;;;4.00;2.30;;;17.80;99.90;;;;;;5106831;28;20437;-50
2022/04/30 10:12:00;;;;;;;2.90;2.47;;;17.90;99.90;;;;;;5097325;28;21128;-50
2022/04/30 10:14:41;;;;;;;3.37;2.43;;;18.20;99.90;;;;;;5095874;28;20445;-50
2022/04/30 10:17:13;;;;;;;7.33;2.13;;;18.30;99.90;;;;;;5099060;28;20458;-50
2022/04/30 10:19:56;;;;;;;4.00;2.17;;;18.50;99.90;;;;;;5102117;28;20496;-50
2022/04/30 10:22:21;;;;;;;4.70;2.67;;;18.60;99.90;;;;;;5099780;28;20418;-50
2022/04/30 10:24:49;;;;;;;3.53;2.20;;;18.80;99.90;;;;;;5106012;28;20757;-50
2022/04/30 10:27:16;;;;;;;3.40;2.70;;;19.00;99.90;;;;;;5102744;28;20184;-49
2022/04/30 10:29:55;;;;;;;3.67;2.27;;;19.10;99.90;;;;;;5101906;28;20796;-50
2022/04/30 10:32:41;;;;;;;5.27;2.47;;;19.30;99.90;;;;;;5107647;28;20483;-50
2022/04/30 10:35:06;;;;;;;3.63;2.53;;;19.40;99.90;;;;;;5097840;28;20434;-50
2022/04/30 10:37:35;;;;;;;3.70;2.53;;;19.70;99.90;;;;;;5106846;28;20936;-50
2022/04/30 10:40:06;;;;;;;4.43;2.50;;;19.80;99.90;;;;;;5095619;28;20253;-49
2022/04/30 10:42:43;;;;;;;2.93;2.23;;;19.70;99.90;;;;;;5102584;27;20435;-50
2022/04/30 10:45:15;;;;;;;6.50;2.67;;;20.00;99.90;;;;;;5105824;28;20422;-50
2022/04/30 10:47:58;;;;;;;6.90;3.30;;;20.40;99.90;;;;;;5104923;28;20465;-51
2022/04/30 10:50:23;;;;;;;3.67;3.30;;;20.50;99.90;;;;;;5104566;28;20456;-50
2022/04/30 10:52:50;;;;;;;4.77;3.30;;;20.60;99.90;;;;;;5105516;27;20434;-50
2022/04/30 10:55:18;;;;;;;4.00;3.40;;;20.10;99.90;;;;;;5103481;28;20929;-50
2022/04/30 10:57:45;;;;;;;4.47;3.23;;;20.20;99.90;;;;;;5101577;28;20525;-50
2022/04/30 11:00:11;;;;;;;6.70;3.53;;;21.00;99.90;;;;;;5103540;28;20461;-51
2022/04/30 11:02:37;;;;;;;8.17;3.23;;;21.60;99.90;;;;;;5099107;27;21249;-50
2022/04/30 11:05:03;;;;;;;7.30;4.00;;;21.90;99.90;;;;;;5097491;28;20535;-50
2022/04/30 11:07:31;;;;;;;7.80;3.20;;;21.90;99.90;;;;;;5096511;28;20204;-51
2022/04/30 11:09:57;;;;;;;6.77;3.57;;;21.00;99.90;;;;;;5100361;28;20455;-50
2022/04/30 11:12:30;;;;;;;6.23;3.50;;;19.70;99.90;;;;;;5103059;28;20435;-51
2022/04/30 11:14:56;;;;;;;4.43;3.07;;;18.50;99.90;;;;;;5098583;28;20517;-50
2022/04/30 11:17:22;;;;;;;3.53;2.63;;;17.90;99.90;;;;;;5106219;28;22783;-52
2022/04/30 11:19:48;;;;;;;10.70;3.37;;;17.30;99.90;;;;;;5105291;28;20565;-50
2022/04/30 11:22:14;;;;;;;4.47;2.60;;;17.00;99.90;;;;;;5102598;28;20192;-51
2022/04/30 11:24:41;;;;;;;4.03;2.60;;;16.60;99.90;;;;;;5097816;28;20236;-50
2022/04/30 11:27:08;;;;;;;6.00;3.60;;;16.40;99.90;;;;;;5099921;28;20220;-51
2022/04/30 11:29:48;;;;;;;3.90;3.20;;;16.30;99.90;;;;;;5107247;28;20974;-50
2022/04/30 11:32:23;;;;;;;5.30;3.00;;;16.40;99.90;;;;;;5079979;28;20453;-51
2022/04/30 11:34:54;;;;;;;7.40;3.80;;;16.90;99.90;;;;;;5103814;27;20441;-50
2022/04/30 11:37:19;;;;;;;5.20;3.83;;;18.20;99.90;;;;;;5102039;28;20447;-51
2022/04/30 11:39:45;;;;;;;6.13;4.50;;;19.60;99.90;;;;;;5085367;28;20785;-51
2022/04/30 11:42:11;;;;;;;6.60;4.07;;;20.30;99.90;;;;;;5101992;28;20229;-51
2022/04/30 11:44:37;;;;;;;4.97;3.60;;;20.00;99.90;;;;;;5106083;28;20239;-50
2022/04/30 11:47:06;;;;;;;3.90;2.30;;;18.90;99.90;;;;;;5101400;28;20458;-50
2022/04/30 11:49:31;;;;;;;2.53;2.13;;;18.20;99.90;;;;;;5107436;27;20993;-50
2022/04/30 11:51:57;;;;;;;3.80;2.20;;;17.70;99.90;;;;;;5102764;28;20437;-50
2022/04/30 11:54:25;;;;;;;3.80;2.07;;;17.00;99.90;;;;;;5102339;28;20537;-50
2022/04/30 11:56:52;;;;;;;2.40;2.20;;;16.60;99.90;;;;;;5101949;28;20200;-50
2022/04/30 11:59:38;;;;;;;2.43;2.03;;;16.50;99.90;;;;;;5101151;28;20848;-50
2022/04/30 12:02:06;;;;;;;3.50;2.10;;;16.50;99.90;;;;;;5103976;28;20799;-50
2022/04/30 12:04:34;;;;;;;4.50;2.97;;;16.50;99.90;;;;;;5106315;28;20977;-50
2022/04/30 12:07:01;;;;;;;7.27;2.80;;;16.40;99.90;;;;;;5099806;28;20458;-50
2022/04/30 12:09:31;;;;;;;2.80;2.50;;;16.60;99.90;;;;;;5099358;28;20453;-50
2022/04/30 12:11:58;;;;;;;4.20;3.20;;;16.70;99.90;;;;;;5095424;28;20437;-50
2022/04/30 12:14:24;;;;;;;3.03;2.80;;;17.10;99.90;;;;;;5095107;28;20431;-52
2022/04/30 12:16:50;;;;;;;3.37;2.43;;;17.40;99.90;;;;;;5102197;28;20449;-50
2022/04/30 12:25:00;;;;;;;5.70;3.13;;;17.10;99.90;;;;;;5098316;28;21776;-50
2022/04/30 12:27:28;;;;;;;6.80;3.70;;;16.60;99.90;;;;;;5102514;28;20491;-50
2022/04/30 12:30:01;;;;;;;5.70;3.17;;;16.30;99.90;;;;;;5102340;28;20477;-50
2022/04/30 12:32:27;;;;;;;6.93;3.67;;;16.00;99.90;;;;;;5103014;28;20870;-50
2022/04/30 12:34:53;;;;;;;4.50;3.50;;;15.70;99.90;;;;;;5103007;28;20545;-50
2022/04/30 12:37:29;;;;;;;6.57;3.50;;;15.70;99.90;;;;;;5099762;28;20276;-50
2022/04/30 12:39:55;;;;;;;9.47;4.20;;;15.60;99.90;;;;;;5095342;28;20407;-50
2022/04/30 12:42:20;;;;;;;5.70;3.97;;;15.90;99.90;;;;;;5103793;28;20442;-51
2022/04/30 12:44:46;;;;;;;4.73;2.97;;;16.10;99.90;;;;;;5100500;28;20596;-50
2022/04/30 12:47:11;;;;;;;6.40;3.70;;;16.30;99.90;;;;;;5099157;28;20185;-50
2022/04/30 12:49:37;;;;;;;4.80;3.03;;;16.60;99.90;;;;;;5101721;28;20213;-50
2022/04/30 12:52:03;;;;;;;3.90;3.43;;;16.60;99.90;;;;;;5100483;28;20201;-50
2022/04/30 12:54:28;;;;;;;4.67;3.63;;;16.80;99.90;;;;;;5102409;28;20227;-50
2022/04/30 12:56:55;;;;;;;6.37;3.77;;;17.00;99.90;;;;;;5098484;28;20198;-50
2022/04/30 12:59:21;;;;;;;6.70;3.43;;;16.90;99.90;;;;;;5095099;28;20189;-50
2022/04/30 13:01:46;;;;;;;7.53;3.17;;;17.10;99.90;;;;;;5102262;28;20521;-51
2022/04/30 13:04:12;;;;;;;4.50;2.83;;;17.20;99.90;;;;;;5102475;28;20516;-55
2022/04/30 13:06:38;;;;;;;4.40;3.30;;;17.30;99.90;;;;;;5102431;28;20659;-50
2022/04/30 13:14:33;;;;;;;4.07;3.07;;;17.10;99.90;;;;;;5100760;28;20900;-50
2022/04/30 13:17:00;;;;;;;3.00;2.80;;;17.00;99.90;;;;;;5101376;28;20434;-50
2022/04/30 13:19:26;;;;;;;6.53;3.20;;;17.00;99.90;;;;;;5105367;28;20231;-50
2022/04/30 13:21:52;;;;;;;4.93;3.17;;;17.30;99.90;;;;;;5106321;28;20473;-50
2022/04/30 13:24:18;;;;;;;6.73;3.23;;;17.50;99.90;;;;;;5099277;28;20434;-50
2022/04/30 13:26:44;;;;;;;3.80;3.43;;;17.40;99.90;;;;;;5108140;28;20208;-50
2022/04/30 13:29:13;;;;;;;6.80;3.63;;;17.20;99.90;;;;;;5098873;28;20427;-50
2022/04/30 13:31:39;;;;;;;8.93;3.20;;;16.70;99.90;;;;;;5102922;27;20942;-50
2022/04/30 13:34:05;;;;;;;4.70;3.33;;;16.30;99.90;;;;;;5106588;28;20526;-53
2022/04/30 13:36:34;;;;;;;6.53;3.90;;;16.10;99.90;;;;;;5107775;27;20204;-50
2022/04/30 13:39:01;;;;;;;7.60;3.80;;;15.90;99.90;;;;;;5107067;28;20439;-50